DUB weather

Dublin Airport
Dublin, County Dublin, Ireland

Public forecast

Using degrees Celsius for public forecast. Weather courtesy of forecast.io.

METAR (pilot weather report)

Retrieved 2017/03/29 09:00 UTC (12 minutes ago):

EIDW 290900Z 11005KT 080V140 9000 FEW004 BKN021 BKN200 13/10 Q1012 NOSIG

TAF (pilot weather forecast)

Forecast is more than 12 hours old.

Retrieved 2017/03/28 06:11 UTC (1 day ago):

TAF EIDW 280500Z 2806/2906 12007KT 4000 BR FEW020 BECMG 2806/2808 15008KT 9999 NSW BECMG 2809/2812 14013KT TEMPO 2809/2812 5000 RA BKN014 BECMG 2812/2815 20013KT TEMPO 2812/2816 5000 SHRA SCT018CB BECMG 2818/2821 19008KT BECMG 2821/2824 16008KT TEMPO 2900/2906 5000 -RA BR BKN012 BECMG 2900/2903 22005KT BECMG 2903/2906 17007KT